Farmville, VA (23901)

10:25 AM EST on February 09, 2016 (GMT -0500)
Hampden-Sydney College | | Change Station
CLOSE
Current Station
Personal Weather Station
Location: Hampden-Sydney, VA
Elevation: 510 ft
Nearby Weather Stations

Elev 510 ft 37.24 °N, 78.46 °W | Updated 3 seconds ago

Overcast
Overcast
39.2 °F
Feels Like 35 °F
N
6.0
Wind Variable Wind from West
Gusts 14.0 mph

Today
High -- | Low -- °F
--% Chance of Precip.
Yesterday
High -- | Low -- °F
Precip. -- in
Pressure 29.60 in
Visibility 10.0 miles
Clouds Overcast 9000 ft
Windchill 35 °F
Dew Point 34 °F
Humidity 80%
Rainfall 0.00 in
Snow Depth Not available.
7:09 AM 5:46 PM
New Moon, 1% visible
METAR KFVX 091515Z AUTO 24006KT 10SM OVC090 05/01 A2960 RMK AO2 T00450012
Pressure 29.60 in
Visibility 10.0 miles
Clouds Overcast 9000 ft
Windchill 35 °F
Dew Point 34 °F
Humidity 80%
Rainfall 0.00 in
Snow Depth Not available.
7:09 AM 5:46 PM
New Moon, 1% visible
METAR KFVX 091515Z AUTO 24006KT 10SM OVC090 05/01 A2960 RMK AO2 T00450012

10-Day Weather Forecast

Almanac

Astronomy

Feb. 09, 2016 Rise Set
Actual Time
Civil Twilight
Nautical Twilight
Astronomical Twilight
Moon
Length of Visible Light
Length of Day
Tomorrow will be .
, % of the Moon is Illuminated

Today's Extremes

State Highs State Lows

Community

WunderPhotos

Upload Photos

1,891,619 photos uploaded!

WunderBlog® & News

Nearby

Air Quality

  Air Quality AQ Index Pollutant
Not available.

Snow Depth

Station Depth Elevation

Earthquake Activity

City Distance Mag. Time & Date
Minimum magnitude displayed is 2.5.

Coastal Water Temperatures

Place Temperature

Stations

Nearby Weather Stations

Station Location Temp. Windchill Dew Point Humidity Wind Precip. Elev Updated Type
                   

Watches & Warnings

There are currently no watches in effect.